createdAt,value
2023-03-22T01:59:44.313Z,986.00
2023-03-22T02:00:44.377Z,990.00
2023-03-22T02:01:44.486Z,978.00
2023-03-22T02:02:44.529Z,988.00
2023-03-22T02:03:44.533Z,982.00
2023-03-22T02:04:44.608Z,982.00
2023-03-22T02:05:44.685Z,975.00
2023-03-22T02:06:44.695Z,980.00
2023-03-22T02:07:44.791Z,983.00
2023-03-22T02:08:44.830Z,982.00
2023-03-22T02:09:44.915Z,970.00
2023-03-22T02:10:44.941Z,981.00
2023-03-22T02:11:44.986Z,973.00
2023-03-22T02:12:45.043Z,960.00
2023-03-22T02:13:45.077Z,978.00
2023-03-22T02:14:45.154Z,962.00
2023-03-22T02:15:45.239Z,977.00
2023-03-22T02:16:45.242Z,970.00
2023-03-22T02:17:45.324Z,969.00
2023-03-22T02:18:45.354Z,954.00
2023-03-22T02:19:45.387Z,961.00
2023-03-22T02:20:45.487Z,947.00
2023-03-22T02:21:45.529Z,953.00
2023-03-22T02:22:45.584Z,943.00
2023-03-22T02:23:45.644Z,947.00
2023-03-22T02:24:45.674Z,965.00
2023-03-22T02:25:45.694Z,946.00
2023-03-22T02:26:45.778Z,950.00
2023-03-22T02:27:45.809Z,957.00
2023-03-22T02:28:45.889Z,953.00
2023-03-22T02:29:45.913Z,942.00
2023-03-22T02:30:45.977Z,952.00
2023-03-22T02:31:46.018Z,955.00
2023-03-22T02:32:46.071Z,940.00
2023-03-22T02:33:46.132Z,957.00
2023-03-22T02:34:46.146Z,949.00
2023-03-22T02:35:46.244Z,950.00
2023-03-22T02:36:46.248Z,954.00
2023-03-22T02:37:46.341Z,953.00
2023-03-22T02:38:46.381Z,948.00
2023-03-22T02:39:46.427Z,953.00
2023-03-22T02:40:46.477Z,953.00
2023-03-22T02:41:46.521Z,938.00
2023-03-22T02:42:46.573Z,940.00
2023-03-22T02:43:46.639Z,949.00
2023-03-22T05:05:49.450Z,880.00
2023-03-22T05:06:49.502Z,885.00
2023-03-22T05:07:49.494Z,876.00
2023-03-22T05:08:49.494Z,888.00
2023-03-22T05:09:49.518Z,881.00
2023-03-22T05:10:49.529Z,871.00
2023-03-22T05:11:49.557Z,874.00
2023-03-22T05:12:49.535Z,877.00
2023-03-22T05:13:49.558Z,873.00
2023-03-22T05:14:49.629Z,870.00
2023-03-22T05:15:49.640Z,871.00
2023-03-22T05:16:49.618Z,876.00
2023-03-22T05:17:49.625Z,870.00
2023-03-22T05:18:49.628Z,876.00
2023-03-22T05:19:49.640Z,865.00
2023-03-22T05:20:49.647Z,863.00
2023-03-22T05:21:49.689Z,861.00
2023-03-22T05:22:49.716Z,866.00
2023-03-22T05:23:51.483Z,860.00
2023-03-22T05:24:49.759Z,851.00
2023-03-22T05:25:49.744Z,862.00
2023-03-22T05:26:49.751Z,858.00
2023-03-22T05:27:49.782Z,843.00
2023-03-22T05:28:49.780Z,858.00
2023-03-22T05:29:49.877Z,860.00
2023-03-22T05:30:49.864Z,859.00
2023-03-22T05:31:49.929Z,852.00
2023-03-22T05:32:49.887Z,862.00
2023-03-22T05:33:49.933Z,865.00
2023-03-22T05:34:49.956Z,847.00
2023-03-22T05:35:50.012Z,847.00
2023-03-22T05:36:49.988Z,844.00
2023-03-22T05:37:49.973Z,852.00
2023-03-22T05:38:49.984Z,843.00
2023-03-22T05:39:50.008Z,843.00
2023-03-22T05:40:49.978Z,844.00
2023-03-22T05:41:49.978Z,840.00
2023-03-22T05:42:50.004Z,836.00
2023-03-22T05:43:50.017Z,838.00
2023-03-22T05:44:50.017Z,826.00
2023-03-22T05:45:50.020Z,843.00
2023-03-22T05:46:50.003Z,837.00
2023-03-22T05:47:50.039Z,841.00
2023-03-22T05:48:50.041Z,837.00
2023-03-22T05:49:50.060Z,837.00
2023-03-22T05:50:50.056Z,839.00
2023-03-22T05:51:50.020Z,831.00
2023-03-22T05:52:50.041Z,830.00
2023-03-22T05:53:50.039Z,833.00
2023-03-22T05:54:50.001Z,825.00
2023-03-22T05:55:49.996Z,826.00
2023-03-22T05:56:50.007Z,831.00
2023-03-22T05:57:49.999Z,815.00
2023-03-22T05:58:50.005Z,833.00
2023-03-22T05:59:49.980Z,826.00
2023-03-22T06:00:57.022Z,820.00
2023-03-22T06:01:50.041Z,822.00
2023-03-22T06:02:50.052Z,827.00
2023-03-22T06:03:49.997Z,827.00
2023-03-22T06:04:49.978Z,831.00
2023-03-22T06:05:49.980Z,832.00
2023-03-22T06:06:50.001Z,823.00
2023-03-22T06:07:49.979Z,827.00
2023-03-22T06:08:49.969Z,820.00
2023-03-22T06:09:49.958Z,822.00
2023-03-22T06:10:49.956Z,814.00
2023-03-22T06:11:49.938Z,822.00
2023-03-22T06:12:49.946Z,809.00
2023-03-22T06:13:49.940Z,800.00
2023-03-22T06:14:49.954Z,808.00
2023-03-22T06:15:49.909Z,808.00
2023-03-22T06:16:49.999Z,805.00
2023-03-22T06:17:49.906Z,800.00
2023-03-22T06:18:49.881Z,808.00
2023-03-22T06:19:52.607Z,804.00
2023-03-22T06:20:49.887Z,804.00
2023-03-22T06:21:49.867Z,807.00
2023-03-22T06:22:49.880Z,809.00
2023-03-22T06:23:49.831Z,802.00
2023-03-22T06:24:49.833Z,802.00
2023-03-22T06:25:49.851Z,820.00
2023-03-22T06:26:49.840Z,798.00
2023-03-22T06:27:49.810Z,802.00
2023-03-22T06:28:49.769Z,813.00
2023-03-22T06:29:49.762Z,811.00
2023-03-22T06:30:49.810Z,788.00
2023-03-22T06:31:49.753Z,806.00
2023-03-22T06:32:49.718Z,824.00
2023-03-22T06:33:49.736Z,832.00
2023-03-22T06:34:49.734Z,872.00
2023-03-22T06:35:49.737Z,989.00
2023-03-22T06:36:49.693Z,1015.00
2023-03-22T06:37:49.704Z,965.00
2023-03-22T06:38:49.730Z,932.00
2023-03-22T06:39:49.701Z,926.00
2023-03-22T06:40:50.182Z,924.00
2023-03-22T06:41:49.679Z,918.00
2023-03-22T06:42:49.676Z,935.00
2023-03-22T06:43:49.687Z,925.00
2023-03-22T06:44:49.665Z,919.00
2023-03-22T06:45:56.835Z,909.00
2023-03-22T06:46:49.649Z,911.00
2023-03-22T06:47:49.675Z,919.00
2023-03-22T06:48:49.660Z,941.00
2023-03-22T06:49:49.679Z,981.00
2023-03-22T06:50:49.684Z,1076.00
2023-03-22T06:51:49.616Z,1064.00
2023-03-22T06:52:49.664Z,1051.00
2023-03-22T06:53:49.696Z,1048.00
2023-03-22T06:54:49.612Z,931.00
2023-03-22T06:55:49.607Z,960.00
2023-03-22T06:56:49.593Z,1020.00
2023-03-22T06:57:49.634Z,1024.00
2023-03-22T06:58:49.696Z,982.00
2023-03-22T06:59:49.582Z,983.00
2023-03-22T07:00:49.592Z,977.00
2023-03-22T07:01:49.586Z,958.00
2023-03-22T07:02:51.526Z,961.00
2023-03-22T07:03:49.597Z,957.00
2023-03-22T07:04:49.624Z,935.00
2023-03-22T07:05:49.582Z,935.00
2023-03-22T07:06:49.600Z,932.00
2023-03-22T07:07:49.598Z,926.00
2023-03-22T07:08:50.887Z,908.00
2023-03-22T07:09:49.591Z,905.00
2023-03-22T07:10:49.579Z,908.00
2023-03-22T07:11:49.614Z,892.00
2023-03-22T07:12:49.700Z,866.00
2023-03-22T07:13:49.666Z,852.00
2023-03-22T07:14:49.750Z,852.00
2023-03-22T07:15:49.835Z,828.00
2023-03-22T07:16:50.274Z,697.00
2023-03-22T07:17:49.902Z,662.00
2023-03-22T07:18:49.972Z,697.00
2023-03-22T07:19:50.027Z,710.00
2023-03-22T07:20:50.096Z,677.00
2023-03-22T07:21:50.250Z,698.00
2023-03-22T07:22:50.197Z,708.00
2023-03-22T07:23:50.273Z,692.00
2023-03-22T07:24:56.697Z,698.00
2023-03-22T07:26:50.301Z,645.00
2023-03-22T07:27:50.313Z,585.00
2023-03-22T07:28:50.319Z,598.00
2023-03-22T07:29:50.379Z,557.00
2023-03-22T07:30:50.372Z,598.00
2023-03-22T07:31:50.870Z,613.00
2023-03-22T07:32:50.321Z,600.00
2023-03-22T07:33:50.318Z,613.00
2023-03-22T07:34:50.333Z,574.00
2023-03-22T07:35:50.441Z,531.00
2023-03-22T07:36:50.711Z,511.00
2023-03-22T07:37:50.522Z,685.00
2023-03-22T07:38:50.529Z,615.00
2023-03-22T07:39:50.571Z,594.00
2023-03-22T07:40:50.588Z,569.00
2023-03-22T07:41:50.783Z,658.00
2023-03-22T07:44:50.793Z,499.00
2023-03-22T08:36:54.305Z,1495.00
2023-03-22T08:47:54.480Z,1808.00
2023-03-22T08:48:54.345Z,1839.00
2023-03-22T08:49:54.394Z,1813.00
2023-03-22T08:50:54.437Z,1911.00
2023-03-22T08:51:54.508Z,1904.00
2023-03-22T08:52:54.563Z,1915.00
2023-03-22T08:53:54.637Z,1940.00
2023-03-22T08:54:54.700Z,1944.00
2023-03-22T08:55:54.786Z,1977.00
2023-03-22T08:56:54.851Z,1903.00
2023-03-22T08:57:54.906Z,2017.00
2023-03-22T08:58:54.974Z,2039.00
2023-03-22T08:59:54.973Z,2061.00
2023-03-22T09:00:55.134Z,2060.00
2023-03-22T09:01:55.226Z,2059.00
2023-03-22T09:02:55.196Z,2064.00
2023-03-22T09:03:55.212Z,2066.00
2023-03-22T09:04:55.333Z,2092.00
2023-03-22T09:05:55.315Z,2106.00
2023-03-22T09:06:55.376Z,2026.00
2023-03-22T09:07:56.607Z,1954.00
2023-03-22T09:20:55.960Z,1580.00
2023-03-22T10:53:57.850Z,1655.00
2023-03-22T10:55:02.326Z,1673.00
2023-03-22T10:56:57.870Z,1679.00
2023-03-22T10:57:57.927Z,1699.00
2023-03-22T10:58:57.909Z,1724.00
2023-03-22T10:59:57.862Z,1762.00
2023-03-22T11:00:57.902Z,1809.00
2023-03-22T11:01:58.095Z,1817.00
2023-03-22T11:02:57.961Z,1790.00
2023-03-22T11:03:57.900Z,1776.00
2023-03-22T11:04:57.831Z,1765.00
2023-03-22T11:05:57.930Z,1764.00
2023-03-22T11:06:57.856Z,1770.00
2023-03-22T14:46:32.943Z,500.00
2023-03-22T14:47:32.948Z,500.00
2023-03-22T14:48:32.991Z,500.00
2023-03-22T14:49:33.003Z,500.00
2023-03-22T14:50:33.001Z,500.00
2023-03-22T14:51:33.037Z,500.00
2023-03-22T14:52:33.025Z,559.00
2023-03-22T14:53:33.030Z,608.00
2023-03-22T14:54:33.071Z,656.00
2023-03-22T14:55:33.083Z,664.00
2023-03-22T14:56:33.105Z,710.00
2023-03-22T14:57:36.809Z,635.00
2023-03-22T14:58:33.103Z,638.00
2023-03-22T14:59:33.104Z,634.00
2023-03-22T15:00:33.125Z,644.00
2023-03-22T15:04:33.168Z,802.00
2023-03-22T15:05:33.164Z,848.00
2023-03-22T15:06:33.198Z,913.00
2023-03-22T15:07:33.177Z,763.00
2023-03-22T15:08:33.242Z,834.00
2023-03-22T15:13:33.268Z,614.00
2023-03-22T15:14:33.274Z,766.00
2023-03-22T15:15:33.622Z,878.00
2023-03-22T15:16:33.401Z,959.00
2023-03-22T15:17:33.354Z,956.00
2023-03-22T15:18:33.322Z,995.00
2023-03-22T15:19:33.362Z,687.00
2023-03-22T15:20:33.634Z,726.00
2023-03-22T15:21:33.376Z,937.00
2023-03-22T15:22:33.405Z,1076.00
2023-03-22T15:23:33.399Z,920.00
2023-03-22T15:24:33.426Z,647.00
2023-03-22T15:29:33.480Z,438.00
2023-03-22T15:30:33.440Z,480.00
2023-03-22T15:31:33.538Z,511.00
2023-03-22T15:32:33.460Z,674.00
2023-03-22T15:33:33.477Z,748.00
2023-03-22T15:34:33.476Z,934.00
2023-03-22T15:35:33.581Z,924.00
2023-03-22T15:36:33.537Z,782.00
2023-03-22T15:37:33.533Z,589.00
2023-03-22T15:38:43.153Z,554.00
2023-03-22T15:39:34.551Z,556.00
2023-03-22T15:43:33.548Z,534.00
2023-03-22T15:44:33.551Z,646.00
2023-03-22T15:45:33.604Z,663.00
2023-03-22T15:46:33.601Z,764.00
2023-03-22T15:47:33.602Z,990.00
2023-03-22T15:48:33.609Z,866.00
2023-03-22T15:49:33.634Z,971.00
2023-03-22T15:50:33.663Z,706.00
2023-03-22T16:19:34.025Z,2219.00
2023-03-22T16:20:34.126Z,2235.00
2023-03-22T16:23:34.166Z,2296.00
2023-03-22T16:25:34.866Z,2375.00
2023-03-22T16:27:34.182Z,2446.00
2023-03-22T16:28:34.197Z,2528.00
2023-03-22T16:29:34.213Z,2633.00
2023-03-22T16:30:34.248Z,2594.00
2023-03-22T16:37:34.264Z,2385.00
2023-03-22T16:38:34.231Z,2400.00
2023-03-22T16:45:34.417Z,2409.00
2023-03-22T16:56:34.638Z,2249.00
2023-03-22T16:58:34.613Z,2148.00
2023-03-22T16:59:34.624Z,2096.00
2023-03-22T17:06:34.770Z,2165.00
2023-03-22T17:07:34.780Z,2111.00
2023-03-22T17:08:34.801Z,2092.00
2023-03-22T17:09:34.889Z,2088.00
2023-03-22T17:10:34.863Z,2023.00
2023-03-22T17:17:34.984Z,2073.00
2023-03-22T17:18:35.051Z,2067.00
2023-03-22T17:19:35.028Z,2108.00
2023-03-22T17:20:35.077Z,2134.00
2023-03-22T17:21:35.172Z,2158.00
2023-03-22T17:22:35.121Z,2107.00
2023-03-22T17:23:35.137Z,2116.00
2023-03-22T17:24:35.195Z,2082.00
2023-03-22T17:25:35.214Z,2083.00
2023-03-22T17:26:35.220Z,2111.00
2023-03-22T17:27:35.252Z,2125.00
2023-03-22T17:28:35.270Z,2148.00
2023-03-22T17:29:35.256Z,2147.00
2023-03-22T17:30:35.286Z,2157.00
2023-03-22T17:31:35.336Z,2176.00
2023-03-22T17:32:59.277Z,2116.00
2023-03-22T17:33:36.381Z,2105.00
2023-03-22T17:36:35.428Z,2031.00
2023-03-22T17:38:44.081Z,2004.00
2023-03-22T17:40:42.644Z,2008.00
2023-03-22T17:41:36.408Z,2010.00
2023-03-22T17:47:39.125Z,2219.00
2023-03-22T17:48:36.475Z,2219.00
2023-03-22T17:51:35.540Z,2093.00
2023-03-22T17:54:24.144Z,2046.00
2023-03-22T17:56:10.663Z,2047.00
2023-03-22T17:58:41.673Z,2054.00
2023-03-22T17:59:36.567Z,2054.00
2023-03-22T18:03:35.557Z,2216.00
2023-03-22T18:04:35.608Z,2196.00
2023-03-22T18:05:35.616Z,2145.00
2023-03-22T18:06:35.654Z,2124.00
2023-03-22T18:07:35.638Z,2101.00
2023-03-22T18:10:35.641Z,2125.00
2023-03-22T18:11:35.688Z,2121.00
2023-03-22T18:13:35.664Z,2124.00
2023-03-22T18:16:52.902Z,2063.00
2023-03-22T18:17:36.719Z,2065.00
2023-03-22T18:18:35.692Z,2071.00
2023-03-22T18:19:36.901Z,2081.00
2023-03-22T18:22:35.755Z,1934.00
2023-03-22T18:28:35.798Z,2010.00
2023-03-22T18:29:35.794Z,1988.00
2023-03-22T18:30:35.867Z,2034.00
2023-03-22T18:31:35.812Z,2065.00
2023-03-22T18:32:59.751Z,2139.00
2023-03-22T18:33:36.835Z,2142.00
2023-03-22T18:35:35.822Z,2175.00
2023-03-22T18:36:35.944Z,2218.00
2023-03-22T18:37:35.891Z,2299.00
2023-03-22T18:41:45.003Z,2319.00
2023-03-22T18:43:36.702Z,2336.00
2023-03-22T18:47:35.970Z,2514.00
2023-03-22T18:48:36.448Z,2524.00
2023-03-22T18:51:59.630Z,2545.00
2023-03-22T18:52:54.393Z,2547.00
2023-03-22T18:53:36.988Z,2548.00
2023-03-22T18:54:38.871Z,2548.00
2023-03-22T18:55:36.639Z,2502.00
2023-03-22T18:56:36.017Z,2434.00
2023-03-22T18:57:36.052Z,2431.00
2023-03-22T18:58:36.048Z,2451.00
2023-03-22T19:00:36.062Z,2478.00
2023-03-22T19:01:36.084Z,2485.00
2023-03-22T19:02:40.186Z,2496.00
2023-03-22T19:06:36.127Z,2529.00
2023-03-22T19:08:36.134Z,2579.00
2023-03-22T19:09:36.171Z,2584.00
2023-03-22T19:13:42.605Z,2607.00
2023-03-22T19:17:36.269Z,2593.00
2023-03-22T19:18:36.260Z,2581.00
2023-03-22T19:19:36.289Z,2589.00
2023-03-22T19:20:40.228Z,2584.00
2023-03-22T19:21:37.111Z,2586.00
2023-03-22T19:22:36.323Z,2588.00
2023-03-22T19:23:36.315Z,2585.00
2023-03-22T19:24:36.336Z,2561.00
2023-03-22T19:28:37.428Z,2492.00
2023-03-22T19:29:36.393Z,2492.00
2023-03-22T19:30:36.415Z,2498.00
2023-03-22T19:31:37.210Z,2518.00
2023-03-22T19:34:36.513Z,2544.00
2023-03-22T19:35:36.500Z,2564.00
2023-03-22T19:36:36.596Z,2568.00
2023-03-22T19:37:36.537Z,2546.00
2023-03-22T19:38:36.557Z,2560.00
2023-03-22T19:39:38.159Z,2564.00
2023-03-22T19:41:28.873Z,2554.00
2023-03-22T19:44:36.618Z,2475.00
2023-03-22T19:45:36.636Z,2409.00
2023-03-22T19:46:36.865Z,2374.00
2023-03-22T19:47:48.230Z,2326.00
2023-03-22T19:48:37.769Z,2280.00
2023-03-22T19:52:36.694Z,2292.00
2023-03-22T19:55:36.738Z,2395.00
2023-03-22T19:56:36.762Z,2386.00
2023-03-22T19:57:36.785Z,2364.00
2023-03-22T19:58:36.791Z,2375.00
2023-03-22T20:00:44.904Z,2427.00
2023-03-22T20:01:37.801Z,2428.00
2023-03-22T20:03:36.835Z,2436.00
2023-03-22T20:04:36.836Z,2444.00
2023-03-22T20:05:43.305Z,2459.00
2023-03-22T20:06:37.859Z,2429.00
2023-03-22T20:07:36.882Z,2439.00
2023-03-22T20:08:36.900Z,2443.00
2023-03-22T20:09:36.904Z,2472.00
2023-03-22T20:10:36.928Z,2504.00
2023-03-22T20:11:43.339Z,2508.00
2023-03-22T20:12:37.984Z,2510.00
2023-03-22T20:13:36.928Z,2513.00
2023-03-22T20:14:36.964Z,2513.00
2023-03-22T20:15:36.988Z,2519.00
2023-03-22T20:17:36.983Z,2505.00
2023-03-22T20:18:37.000Z,2487.00
2023-03-22T20:19:37.010Z,2479.00
2023-03-22T20:20:37.056Z,2485.00
2023-03-22T20:21:37.072Z,2491.00
2023-03-22T20:22:37.069Z,2480.00
2023-03-22T20:24:37.082Z,2501.00
2023-03-22T20:25:37.080Z,2503.00
2023-03-22T20:26:37.100Z,2504.00
2023-03-22T20:28:37.139Z,2516.00
2023-03-22T20:29:37.229Z,2532.00
2023-03-22T20:30:37.291Z,2524.00
2023-03-22T20:31:37.334Z,2519.00
2023-03-22T20:32:37.378Z,2490.00
2023-03-22T20:33:37.438Z,2499.00
2023-03-22T20:34:37.523Z,2494.00
2023-03-22T20:35:37.547Z,2501.00
2023-03-22T20:36:37.658Z,2504.00
2023-03-22T20:37:37.651Z,2505.00
2023-03-22T20:38:37.690Z,2505.00
2023-03-22T20:39:37.775Z,2481.00
2023-03-22T20:40:37.821Z,2477.00
2023-03-22T20:41:37.851Z,2410.00
2023-03-22T20:42:37.932Z,2281.00
2023-03-22T20:43:37.982Z,2277.00
2023-03-22T20:44:38.030Z,2216.00
2023-03-22T20:45:38.082Z,2198.00
2023-03-22T20:46:38.161Z,2218.00
2023-03-22T20:47:38.196Z,2249.00
2023-03-22T20:48:38.264Z,2205.00
2023-03-22T20:49:38.358Z,2200.00
2023-03-22T20:50:38.386Z,2221.00
2023-03-22T20:51:38.456Z,2253.00
2023-03-22T20:52:38.520Z,2277.00
2023-03-22T20:53:38.560Z,2299.00
2023-03-22T20:54:38.658Z,2312.00
2023-03-22T20:55:38.936Z,2305.00
2023-03-22T20:56:38.788Z,2324.00
2023-03-22T20:57:38.828Z,2322.00
2023-03-22T20:58:38.903Z,2325.00
2023-03-22T20:59:38.949Z,2343.00
2023-03-22T21:00:39.023Z,2364.00
2023-03-22T21:01:39.135Z,2333.00
2023-03-22T21:02:39.157Z,2299.00
2023-03-22T21:03:39.255Z,2294.00
2023-03-22T21:04:39.362Z,2315.00
2023-03-22T21:05:39.381Z,2335.00
2023-03-22T21:06:39.374Z,2361.00
2023-03-22T21:07:39.464Z,2352.00
2023-03-22T21:08:39.523Z,2333.00
2023-03-22T21:09:39.600Z,2332.00
2023-03-22T21:10:39.656Z,2328.00
2023-03-22T21:11:39.716Z,2303.00
2023-03-22T21:12:39.770Z,2300.00
2023-03-22T21:13:39.830Z,2287.00
2023-03-22T21:14:39.844Z,2289.00
2023-03-22T21:15:40.138Z,2287.00
2023-03-22T21:16:39.952Z,2300.00
2023-03-22T21:17:40.016Z,2289.00
2023-03-22T21:18:40.049Z,2298.00
2023-03-22T21:19:40.083Z,2282.00
2023-03-22T21:20:40.127Z,2247.00
2023-03-22T21:21:40.191Z,2180.00
2023-03-22T21:22:40.234Z,2116.00
2023-03-22T21:23:40.332Z,2112.00
2023-03-22T21:24:40.351Z,2128.00
2023-03-22T21:25:40.593Z,2160.00
2023-03-22T21:26:40.489Z,2177.00
2023-03-22T21:27:40.514Z,2218.00
2023-03-22T21:28:40.586Z,2244.00
2023-03-22T21:29:40.638Z,2236.00
2023-03-22T21:30:40.690Z,2250.00
2023-03-22T21:31:40.757Z,2265.00
2023-03-22T21:32:40.821Z,2278.00
2023-03-22T21:33:40.975Z,2259.00
2023-03-22T21:34:40.939Z,2242.00
2023-03-22T21:35:41.114Z,2234.00
2023-03-22T21:36:41.073Z,2242.00
2023-03-22T21:37:41.098Z,2248.00
2023-03-22T21:38:41.160Z,2256.00
2023-03-22T21:39:41.191Z,2249.00
2023-03-22T21:40:41.260Z,2254.00
2023-03-22T21:41:41.328Z,2253.00
2023-03-22T21:42:41.390Z,2252.00
2023-03-22T21:43:41.425Z,2261.00
2023-03-22T21:44:41.495Z,2225.00
2023-03-22T21:45:41.741Z,2190.00
2023-03-22T21:46:41.618Z,2192.00
2023-03-22T21:47:41.661Z,2196.00
2023-03-22T21:48:41.706Z,2201.00
2023-03-22T21:49:41.774Z,2192.00
2023-03-22T21:50:41.822Z,2192.00
2023-03-22T21:51:41.882Z,2202.00
2023-03-22T21:52:41.950Z,2201.00
2023-03-22T21:56:42.132Z,2226.00
2023-03-22T21:57:42.156Z,2204.00
2023-03-22T21:58:42.206Z,2243.00
2023-03-22T21:59:42.298Z,2228.00
2023-03-22T22:00:42.345Z,2241.00
2023-03-22T22:01:42.383Z,2242.00
2023-03-22T22:02:42.486Z,2223.00
2023-03-22T22:03:42.538Z,2244.00
2023-03-22T22:04:42.570Z,2247.00
2023-03-22T22:05:42.897Z,2245.00
2023-03-22T22:06:42.674Z,2241.00
2023-03-22T22:07:42.727Z,2224.00
2023-03-22T22:08:42.818Z,2233.00
2023-03-22T22:09:42.839Z,2218.00
2023-03-22T22:10:42.903Z,2235.00
2023-03-22T22:11:42.958Z,2226.00
2023-03-22T22:12:43.002Z,2235.00
2023-03-22T22:13:43.086Z,2229.00
2023-03-22T22:14:43.124Z,2250.00
2023-03-22T22:15:43.293Z,2236.00
2023-03-22T22:16:43.227Z,2240.00
2023-03-22T22:17:43.331Z,2232.00
2023-03-22T22:18:43.395Z,2227.00
2023-03-22T22:19:43.438Z,2217.00
2023-03-22T22:20:43.501Z,2232.00
2023-03-22T22:21:43.552Z,2222.00
2023-03-22T22:22:43.635Z,2217.00
2023-03-22T22:23:43.702Z,2208.00
2023-03-22T22:24:43.778Z,2225.00
2023-03-22T22:25:43.803Z,2216.00
2023-03-22T22:26:43.856Z,2199.00
2023-03-22T22:27:43.921Z,2195.00
2023-03-22T22:28:44.004Z,2185.00
2023-03-22T22:29:44.079Z,2141.00
2023-03-22T22:30:44.129Z,2126.00
2023-03-22T22:31:44.150Z,2092.00
2023-03-22T22:32:44.232Z,2100.00
2023-03-22T22:33:44.307Z,2084.00
2023-03-22T22:34:44.337Z,2091.00
2023-03-22T22:35:44.609Z,2088.00
2023-03-22T22:36:45.310Z,2075.00
2023-03-22T22:39:44.694Z,1978.00
2023-03-22T22:40:44.724Z,1891.00
2023-03-22T22:41:44.781Z,1866.00
2023-03-22T22:42:44.853Z,1815.00
2023-03-22T22:43:44.928Z,1795.00
2023-03-22T22:44:44.996Z,1778.00
2023-03-22T22:45:45.071Z,1788.00
2023-03-22T22:46:45.145Z,1759.00
2023-03-22T22:47:45.195Z,1781.00
2023-03-22T22:48:45.279Z,1801.00
2023-03-22T22:49:45.360Z,1843.00
2023-03-22T22:50:45.410Z,1844.00
2023-03-22T22:51:45.495Z,1854.00
2023-03-22T22:52:45.599Z,1821.00
2023-03-22T22:53:45.648Z,1786.00
2023-03-22T22:54:45.717Z,1769.00
2023-03-22T22:55:45.777Z,1771.00
2023-03-22T22:56:45.835Z,1766.00
2023-03-22T22:57:45.913Z,1782.00
2023-03-22T22:58:45.981Z,1783.00
2023-03-22T22:59:46.034Z,1798.00
2023-03-22T23:00:46.127Z,1814.00
2023-03-22T23:01:46.204Z,1839.00
2023-03-22T23:02:46.277Z,1837.00
2023-03-22T23:03:46.319Z,1864.00
2023-03-22T23:04:46.380Z,1871.00
2023-03-22T23:05:46.476Z,1865.00
2023-03-22T23:06:46.540Z,1875.00
2023-03-22T23:07:46.614Z,1881.00
2023-03-22T23:08:46.688Z,1876.00
2023-03-22T23:09:46.777Z,1873.00
2023-03-22T23:10:46.832Z,1869.00
2023-03-22T23:11:46.902Z,1868.00
2023-03-22T23:12:47.006Z,1860.00
2023-03-22T23:13:47.052Z,1875.00
2023-03-22T23:14:47.112Z,1874.00
2023-03-22T23:15:47.147Z,1872.00
2023-03-22T23:16:47.255Z,1847.00
2023-03-22T23:17:47.281Z,1838.00
2023-03-22T23:18:47.339Z,1810.00
2023-03-22T23:19:47.438Z,1791.00
2023-03-22T23:20:47.492Z,1795.00
2023-03-22T23:21:47.563Z,1802.00
2023-03-22T23:22:47.628Z,1798.00
2023-03-22T23:23:50.081Z,1809.00
2023-03-22T23:24:47.755Z,1827.00
2023-03-22T23:25:47.847Z,1810.00
2023-03-22T23:26:47.913Z,1820.00
2023-03-22T23:27:47.957Z,1810.00
2023-03-22T23:28:48.026Z,1777.00
2023-03-22T23:29:48.130Z,1768.00
2023-03-22T23:30:48.159Z,1772.00
2023-03-22T23:31:48.249Z,1771.00
2023-03-22T23:32:48.336Z,1780.00
2023-03-22T23:33:48.396Z,1760.00
2023-03-22T23:34:48.455Z,1725.00
2023-03-22T23:35:48.552Z,1617.00
2023-03-22T23:36:48.638Z,1509.00
2023-03-22T23:37:48.680Z,1488.00
2023-03-22T23:38:48.771Z,1488.00
2023-03-22T23:39:48.816Z,1443.00
2023-03-22T23:40:48.904Z,1424.00
2023-03-22T23:41:48.977Z,1431.00
2023-03-22T23:42:49.053Z,1491.00
2023-03-22T23:43:49.066Z,1492.00
2023-03-22T23:44:49.083Z,1502.00
2023-03-22T23:45:49.107Z,1527.00
2023-03-22T23:57:49.349Z,1758.00
2023-03-22T23:58:49.345Z,1733.00
2023-03-22T23:59:49.403Z,1709.00
